Time;durP1;ratioP1;P1;durP2;ratioP2;P2;SDS_P1;SDS_P2;PMS_P1;PMS_P2;Temp;Humidity;BMP_temperature;BMP_pressure;BME280_temperature;BME280_humidity;BME280_pressure;Samples;Min_cycle;Max_cycle;Signal;HPM_P1;HPM_P2
2022/12/23 04:02:15;;;;;;;;;;;10.20;99.90;;;;;;5322882;23;19926;-67
2022/12/23 04:04:50;;;;;;;;;;;10.10;99.90;;;;;;4946416;29;19927;-67
2022/12/23 04:07:19;;;;;;;;;;;10.00;99.90;;;;;;4965248;28;20034;-67
2022/12/23 04:09:46;;;;;;;;;;;9.90;99.90;;;;;;4941700;29;20381;-67
2022/12/23 04:12:13;;;;;;;;;;;9.90;99.90;;;;;;4942242;29;19981;-67
2022/12/23 04:14:45;;;;;;;;;;;9.90;99.90;;;;;;4947832;29;20475;-67
2022/12/23 04:17:13;;;;;;;;;;;9.90;99.90;;;;;;4953837;28;19962;-67
2022/12/23 04:19:39;;;;;;;;;;;9.80;99.90;;;;;;4949665;29;19980;-68
2022/12/23 04:22:06;;;;;;;;;;;9.80;99.90;;;;;;4961501;28;20389;-68
2022/12/23 04:24:32;;;;;;;;;;;9.80;99.90;;;;;;4960780;28;20013;-67
2022/12/23 04:26:59;;;;;;;;;;;9.80;99.90;;;;;;4943716;29;19927;-68
2022/12/23 04:29:26;;;;;;;;;;;9.80;99.90;;;;;;4964120;28;20014;-68
2022/12/23 04:31:52;;;;;;;;;;;9.90;99.90;;;;;;4955650;28;19982;-67
2022/12/23 04:34:20;;;;;;;;;;;9.80;99.90;;;;;;4965543;28;19965;-68
2022/12/23 04:36:47;;;;;;;;;;;9.80;99.90;;;;;;4956994;28;20303;-67
2022/12/23 04:39:14;;;;;;;;;;;9.90;99.90;;;;;;4938677;29;19927;-66
2022/12/23 04:41:41;;;;;;;;;;;9.90;99.90;;;;;;4956854;28;19926;-67
2022/12/23 04:44:08;;;;;;;;;;;9.90;99.90;;;;;;4960084;28;19927;-68
2022/12/23 04:46:34;;;;;;;;;;;9.90;99.90;;;;;;4951026;28;20294;-67
2022/12/23 04:49:01;;;;;;;;;;;9.90;99.90;;;;;;4958588;28;19934;-67
2022/12/23 04:51:29;;;;;;;;;;;9.90;99.90;;;;;;4965144;28;19926;-67
2022/12/23 04:53:56;;;;;;;;;;;10.00;99.90;;;;;;4959100;28;19934;-67
2022/12/23 04:56:23;;;;;;;;;;;10.00;99.90;;;;;;4940143;29;19931;-68
2022/12/23 04:58:50;;;;;;;;;;;10.00;99.90;;;;;;4957906;28;19930;-67
2022/12/23 05:01:17;;;;;;;;;;;10.10;99.90;;;;;;4938015;29;19934;-67
2022/12/23 05:03:43;;;;;;;;;;;10.10;99.90;;;;;;4957049;28;19927;-67
2022/12/23 05:06:10;;;;;;;;;;;10.10;99.90;;;;;;4961515;28;19935;-67
2022/12/23 05:08:38;;;;;;;;;;;10.10;99.90;;;;;;4955382;28;19931;-67
2022/12/23 05:11:06;;;;;;;;;;;10.10;99.90;;;;;;4941461;29;19931;-67
2022/12/23 05:13:33;;;;;;;;;;;10.10;99.90;;;;;;4939614;29;20394;-68
2022/12/23 05:15:59;;;;;;;;;;;10.20;99.90;;;;;;4959612;28;19927;-67
2022/12/23 05:18:26;;;;;;;;;;;10.20;99.90;;;;;;4959046;28;20322;-68
2022/12/23 05:20:53;;;;;;;;;;;10.20;99.90;;;;;;4957104;28;19933;-68
2022/12/23 05:23:20;;;;;;;;;;;10.20;99.90;;;;;;4963046;28;19930;-68
2022/12/23 05:25:52;;;;;;;;;;;10.20;99.90;;;;;;4960228;28;19931;-67
2022/12/23 05:28:18;;;;;;;;;;;10.30;99.90;;;;;;4956185;28;20022;-68
2022/12/23 05:30:45;;;;;;;;;;;10.30;99.90;;;;;;4939906;29;19933;-70
2022/12/23 05:33:12;;;;;;;;;;;10.30;99.90;;;;;;4948166;29;19927;-67
2022/12/23 05:35:39;;;;;;;;;;;10.30;99.90;;;;;;4963492;28;19934;-68
2022/12/23 05:38:06;;;;;;;;;;;10.20;99.90;;;;;;4956289;28;20009;-68
2022/12/23 05:40:32;;;;;;;;;;;10.20;99.90;;;;;;4960944;28;19927;-68
2022/12/23 05:43:01;;;;;;;;;;;10.30;99.90;;;;;;4945769;29;19933;-67
2022/12/23 05:45:27;;;;;;;;;;;10.30;99.90;;;;;;4940539;29;19931;-67
2022/12/23 05:47:54;;;;;;;;;;;10.30;99.90;;;;;;4945494;29;19927;-68
2022/12/23 05:50:21;;;;;;;;;;;10.30;99.90;;;;;;4953080;28;20290;-67
2022/12/23 05:52:48;;;;;;;;;;;10.30;99.90;;;;;;4952739;28;20381;-69
2022/12/23 05:55:15;;;;;;;;;;;10.20;99.90;;;;;;4940677;29;19942;-68
2022/12/23 05:57:42;;;;;;;;;;;10.10;99.90;;;;;;4947286;29;19926;-68
2022/12/23 06:00:11;;;;;;;;;;;10.00;99.90;;;;;;4960081;28;19933;-69
2022/12/23 06:02:40;;;;;;;;;;;10.00;99.90;;;;;;4937271;29;19965;-67
2022/12/23 06:05:08;;;;;;;;;;;10.00;99.90;;;;;;4941110;29;19946;-68
2022/12/23 06:07:34;;;;;;;;;;;10.00;99.90;;;;;;4965814;28;20409;-67
2022/12/23 06:10:01;;;;;;;;;;;9.90;99.90;;;;;;4960286;28;19935;-67
2022/12/23 06:12:28;;;;;;;;;;;9.90;99.90;;;;;;4958262;28;19978;-71
2022/12/23 06:14:55;;;;;;;;;;;9.90;99.90;;;;;;4938971;29;20290;-66
2022/12/23 06:17:23;;;;;;;;;;;9.90;99.90;;;;;;4942366;29;19934;-66
2022/12/23 06:19:50;;;;;;;;;;;9.90;99.90;;;;;;4953328;28;20350;-69
2022/12/23 06:22:19;;;;;;;;;;;9.90;99.90;;;;;;4949437;29;19926;-66
2022/12/23 06:24:46;;;;;;;;;;;9.80;99.90;;;;;;4960399;28;19965;-68
2022/12/23 06:27:13;;;;;;;;;;;9.80;99.90;;;;;;4953914;28;19927;-66
2022/12/23 06:29:40;;;;;;;;;;;9.90;99.90;;;;;;4937379;29;19974;-66
2022/12/23 06:32:06;;;;;;;;;;;9.90;99.90;;;;;;4960828;28;19981;-66
2022/12/23 06:34:35;;;;;;;;;;;9.90;99.90;;;;;;4960796;28;19930;-66
2022/12/23 06:37:01;;;;;;;;;;;9.90;99.90;;;;;;4952286;28;20430;-66
2022/12/23 06:39:28;;;;;;;;;;;9.90;99.90;;;;;;4948385;29;19927;-66
2022/12/23 06:41:55;;;;;;;;;;;9.90;99.90;;;;;;4960614;28;19934;-69
2022/12/23 06:44:22;;;;;;;;;;;9.80;99.90;;;;;;4946392;29;19945;-66
2022/12/23 06:46:49;;;;;;;;;;;9.80;99.90;;;;;;4960715;28;19935;-67
2022/12/23 06:49:15;;;;;;;;;;;9.80;99.90;;;;;;4942773;29;19934;-70
2022/12/23 06:51:44;;;;;;;;;;;9.80;99.90;;;;;;4943671;28;19930;-68
2022/12/23 06:54:11;;;;;;;;;;;9.80;99.90;;;;;;4941852;29;20305;-68
2022/12/23 06:56:38;;;;;;;;;;;9.80;99.90;;;;;;4956786;28;20038;-67
2022/12/23 06:59:05;;;;;;;;;;;9.80;99.90;;;;;;4938867;29;19926;-64
2022/12/23 07:01:32;;;;;;;;;;;9.80;99.90;;;;;;4950273;29;19927;-66
2022/12/23 07:03:58;;;;;;;;;;;9.80;99.90;;;;;;4939813;29;19953;-67
2022/12/23 07:06:25;;;;;;;;;;;9.80;99.90;;;;;;4940751;29;19942;-66
2022/12/23 07:08:53;;;;;;;;;;;9.80;99.90;;;;;;4955656;28;20394;-73
2022/12/23 07:11:20;;;;;;;;;;;9.80;99.90;;;;;;4945972;29;19926;-65
2022/12/23 07:13:47;;;;;;;;;;;9.80;99.90;;;;;;4940734;29;19934;-67
2022/12/23 07:16:14;;;;;;;;;;;9.80;99.90;;;;;;4955581;28;19974;-67
2022/12/23 07:18:41;;;;;;;;;;;9.80;99.90;;;;;;4951047;29;19927;-66
2022/12/23 07:21:07;;;;;;;;;;;9.80;99.90;;;;;;4958272;28;19926;-67
2022/12/23 07:23:34;;;;;;;;;;;9.80;99.90;;;;;;4955681;28;19942;-66
2022/12/23 07:26:02;;;;;;;;;;;9.80;99.90;;;;;;4957728;28;19926;-66
2022/12/23 07:28:29;;;;;;;;;;;9.80;99.90;;;;;;4937056;29;19927;-67
2022/12/23 07:30:56;;;;;;;;;;;9.80;99.90;;;;;;4955339;28;20386;-67
2022/12/23 07:33:23;;;;;;;;;;;9.80;99.90;;;;;;4957656;28;19930;-66
2022/12/23 07:35:50;;;;;;;;;;;9.90;99.90;;;;;;4960451;28;19931;-66
2022/12/23 07:38:16;;;;;;;;;;;9.80;99.90;;;;;;4938096;29;19987;-66
2022/12/23 07:40:43;;;;;;;;;;;9.80;99.90;;;;;;4942884;28;20345;-66
2022/12/23 07:43:11;;;;;;;;;;;9.80;99.90;;;;;;4942908;29;19930;-66
2022/12/23 07:45:38;;;;;;;;;;;9.90;99.90;;;;;;4957046;28;20409;-66
2022/12/23 07:48:05;;;;;;;;;;;9.90;99.90;;;;;;4960827;28;19934;-65
2022/12/23 07:50:32;;;;;;;;;;;9.90;99.90;;;;;;4950832;28;19960;-66
2022/12/23 07:52:58;;;;;;;;;;;9.90;99.90;;;;;;4959190;28;19937;-66
2022/12/23 07:55:25;;;;;;;;;;;9.90;99.90;;;;;;4958099;28;19927;-66
2022/12/23 07:57:52;;;;;;;;;;;9.90;99.90;;;;;;4951504;28;19927;-66
2022/12/23 08:00:21;;;;;;;;;;;9.90;99.90;;;;;;4945463;29;19927;-66
2022/12/23 08:02:48;;;;;;;;;;;9.90;99.90;;;;;;4954111;28;19932;-67
2022/12/23 08:05:15;;;;;;;;;;;9.90;99.90;;;;;;4959264;28;19934;-67
2022/12/23 08:07:43;;;;;;;;;;;9.90;99.90;;;;;;4953723;28;19927;-68
2022/12/23 08:10:10;;;;;;;;;;;9.90;99.90;;;;;;4947862;28;19934;-67
2022/12/23 08:12:37;;;;;;;;;;;9.90;99.90;;;;;;4941265;29;19926;-66
2022/12/23 08:15:05;;;;;;;;;;;9.90;99.90;;;;;;4954136;28;19949;-66
2022/12/23 08:17:33;;;;;;;;;;;9.90;99.90;;;;;;4955304;28;19927;-66
2022/12/23 08:20:00;;;;;;;;;;;9.90;99.90;;;;;;4952746;28;19927;-65
2022/12/23 08:22:27;;;;;;;;;;;9.90;99.90;;;;;;4936428;29;20011;-66
2022/12/23 08:24:54;;;;;;;;;;;9.90;99.90;;;;;;4954408;28;19927;-67
2022/12/23 08:27:20;;;;;;;;;;;9.90;99.90;;;;;;4950575;28;19927;-66
2022/12/23 08:29:47;;;;;;;;;;;9.90;99.90;;;;;;4937058;29;19934;-67
2022/12/23 08:32:14;;;;;;;;;;;9.90;99.90;;;;;;4936606;29;19931;-68
2022/12/23 08:34:42;;;;;;;;;;;9.90;99.90;;;;;;4938056;29;19934;-67
2022/12/23 08:37:09;;;;;;;;;;;9.90;99.90;;;;;;4953233;28;19927;-66
2022/12/23 08:39:36;;;;;;;;;;;9.80;99.90;;;;;;4962579;28;19930;-66
2022/12/23 08:42:03;;;;;;;;;;;9.80;99.90;;;;;;4961730;28;20007;-65
2022/12/23 08:44:31;;;;;;;;;;;9.70;99.90;;;;;;4946638;29;19927;-66
2022/12/23 08:46:58;;;;;;;;;;;9.70;99.90;;;;;;4962605;28;19926;-66
2022/12/23 08:49:25;;;;;;;;;;;9.70;99.90;;;;;;4959163;28;19930;-65
2022/12/23 08:51:53;;;;;;;;;;;9.60;99.90;;;;;;4947819;28;19930;-66
2022/12/23 08:54:21;;;;;;;;;;;9.60;99.90;;;;;;4955971;28;19930;-66
2022/12/23 08:56:47;;;;;;;;;;;9.60;99.90;;;;;;4964207;28;19977;-66
2022/12/23 08:59:15;;;;;;;;;;;9.60;99.90;;;;;;4959212;28;19937;-66
2022/12/23 09:01:41;;;;;;;;;;;9.60;99.90;;;;;;4947785;29;19927;-66
2022/12/23 09:04:09;;;;;;;;;;;9.60;99.90;;;;;;4960475;28;19934;-65
2022/12/23 09:06:36;;;;;;;;;;;9.60;99.90;;;;;;4942314;29;19934;-67
2022/12/23 09:09:05;;;;;;;;;;;9.60;99.90;;;;;;4947564;29;20309;-65
2022/12/23 09:11:33;;;;;;;;;;;9.60;99.90;;;;;;4939319;29;19931;-66
2022/12/23 09:14:00;;;;;;;;;;;9.60;99.90;;;;;;4937762;29;20457;-66
2022/12/23 09:16:28;;;;;;;;;;;9.60;99.90;;;;;;4958998;28;20552;-65
2022/12/23 09:18:54;;;;;;;;;;;9.60;99.90;;;;;;4942062;29;19945;-66
2022/12/23 09:21:22;;;;;;;;;;;9.60;99.90;;;;;;4959477;28;19926;-66
2022/12/23 09:23:49;;;;;;;;;;;9.70;99.90;;;;;;4955093;28;19926;-66
2022/12/23 09:26:19;;;;;;;;;;;9.70;99.90;;;;;;4961337;28;19926;-66
2022/12/23 09:28:46;;;;;;;;;;;9.70;99.90;;;;;;4953455;28;19926;-66
2022/12/23 09:31:13;;;;;;;;;;;9.80;99.90;;;;;;4945669;29;19934;-66
2022/12/23 09:33:40;;;;;;;;;;;9.80;99.90;;;;;;4963805;28;19927;-66
2022/12/23 09:36:07;;;;;;;;;;;9.80;99.90;;;;;;4945751;29;19974;-66
2022/12/23 09:38:34;;;;;;;;;;;9.80;99.90;;;;;;4963089;28;19987;-66
2022/12/23 09:41:01;;;;;;;;;;;9.80;99.90;;;;;;4945753;29;19927;-66
2022/12/23 09:43:34;;;;;;;;;;;9.80;99.90;;;;;;4942719;29;19926;-66
2022/12/23 09:46:05;;;;;;;;;;;9.80;99.90;;;;;;4958562;28;19927;-67
2022/12/23 09:48:34;;;;;;;;;;;9.80;99.90;;;;;;4961116;28;20410;-67
2022/12/23 09:51:01;;;;;;;;;;;9.80;99.90;;;;;;4959495;28;19927;-67
2022/12/23 09:53:34;;;;;;;;;;;9.80;99.90;;;;;;4961089;28;20282;-67
2022/12/23 09:56:06;;;;;;;;;;;9.80;99.90;;;;;;4942831;29;19926;-67
2022/12/23 09:58:38;;;;;;;;;;;9.90;99.90;;;;;;4966541;28;19930;-66
2022/12/23 10:01:13;;;;;;;;;;;9.90;99.90;;;;;;4958737;28;19933;-67
2022/12/23 10:03:54;;;;;;;;;;;9.90;99.90;;;;;;4960928;28;19927;-67
2022/12/23 10:06:23;;;;;;;;;;;10.00;99.90;;;;;;4946252;28;19927;-67
2022/12/23 10:08:53;;;;;;;;;;;10.10;99.90;;;;;;4961568;28;19942;-65
2022/12/23 10:11:21;;;;;;;;;;;10.10;99.90;;;;;;4938344;29;19934;-66
2022/12/23 10:13:51;;;;;;;;;;;10.10;99.90;;;;;;4956869;28;19931;-67
2022/12/23 10:16:19;;;;;;;;;;;10.10;99.90;;;;;;4951698;28;20275;-67
2022/12/23 10:18:49;;;;;;;;;;;10.10;99.90;;;;;;4938512;29;20357;-66
2022/12/23 10:21:18;;;;;;;;;;;10.10;99.90;;;;;;4958102;28;19934;-67
2022/12/23 10:23:49;;;;;;;;;;;10.20;99.90;;;;;;4961286;28;19934;-67
2022/12/23 10:26:19;;;;;;;;;;;10.20;99.90;;;;;;4936822;29;19934;-67
2022/12/23 10:28:46;;;;;;;;;;;10.20;99.90;;;;;;4961928;28;20006;-66
2022/12/23 10:31:17;;;;;;;;;;;10.20;99.90;;;;;;4956304;28;19934;-66
2022/12/23 10:33:46;;;;;;;;;;;10.20;99.90;;;;;;4957588;28;19933;-67
2022/12/23 10:36:17;;;;;;;;;;;10.20;99.90;;;;;;4955868;28;19927;-66
2022/12/23 10:38:49;;;;;;;;;;;10.20;99.90;;;;;;4956651;28;19926;-67
2022/12/23 10:41:20;;;;;;;;;;;10.20;99.90;;;;;;4943283;29;19931;-66
2022/12/23 10:43:55;;;;;;;;;;;10.20;99.90;;;;;;4951233;28;19934;-67
2022/12/23 10:46:28;;;;;;;;;;;10.10;99.90;;;;;;4950234;28;19933;-66
2022/12/23 10:49:00;;;;;;;;;;;10.10;99.90;;;;;;4955252;28;19926;-67
2022/12/23 10:51:30;;;;;;;;;;;10.10;99.90;;;;;;4967485;28;19927;-66
2022/12/23 10:54:00;;;;;;;;;;;10.10;99.90;;;;;;4936139;29;20354;-67
2022/12/23 10:56:28;;;;;;;;;;;10.10;99.90;;;;;;4957061;28;19933;-67
2022/12/23 10:58:56;;;;;;;;;;;10.10;99.90;;;;;;4943342;29;19934;-66
2022/12/23 11:01:25;;;;;;;;;;;10.10;99.90;;;;;;4955755;28;19926;-67
2022/12/23 11:03:55;;;;;;;;;;;10.20;99.90;;;;;;4938459;29;20645;-67
2022/12/23 11:06:22;;;;;;;;;;;10.20;99.90;;;;;;4951639;28;19933;-67
2022/12/23 11:08:50;;;;;;;;;;;10.20;99.90;;;;;;4945940;29;19928;-65
2022/12/23 11:11:16;;;;;;;;;;;10.10;99.90;;;;;;4953892;28;20221;-67
2022/12/23 11:13:44;;;;;;;;;;;10.10;99.90;;;;;;4939944;29;19933;-67
2022/12/23 11:16:12;;;;;;;;;;;10.10;99.90;;;;;;4957828;28;19981;-67
2022/12/23 11:18:51;;;;;;;;;;;10.10;99.90;;;;;;4958385;28;19927;-66
2022/12/23 11:21:18;;;;;;;;;;;10.10;99.90;;;;;;4958776;28;19927;-68
2022/12/23 11:23:45;;;;;;;;;;;10.10;99.90;;;;;;4942190;29;19931;-67
2022/12/23 11:26:13;;;;;;;;;;;10.10;99.90;;;;;;4953896;29;19949;-66
2022/12/23 11:28:48;;;;;;;;;;;10.10;99.90;;;;;;4962811;28;19927;-66
2022/12/23 11:31:16;;;;;;;;;;;10.10;99.90;;;;;;4945595;29;19927;-66
2022/12/23 11:33:51;;;;;;;;;;;10.00;99.90;;;;;;4944598;29;20041;-67
2022/12/23 11:36:22;;;;;;;;;;;10.10;99.90;;;;;;4950246;29;19935;-67
2022/12/23 11:38:50;;;;;;;;;;;10.10;99.90;;;;;;4964736;28;19926;-67
2022/12/23 11:41:20;;;;;;;;;;;10.10;99.90;;;;;;4959560;28;19934;-67
2022/12/23 11:43:48;;;;;;;;;;;10.10;99.90;;;;;;4948621;29;19926;-66
2022/12/23 11:46:17;;;;;;;;;;;10.10;99.90;;;;;;4948346;29;19986;-66
2022/12/23 11:48:43;;;;;;;;;;;10.10;99.90;;;;;;4946854;28;20279;-67
2022/12/23 11:51:12;;;;;;;;;;;10.10;99.90;;;;;;4956509;28;19927;-66
2022/12/23 11:53:42;;;;;;;;;;;10.10;99.90;;;;;;4945126;29;19950;-67
2022/12/23 11:56:10;;;;;;;;;;;10.10;99.90;;;;;;4966155;28;20393;-67
2022/12/23 11:58:39;;;;;;;;;;;10.00;99.90;;;;;;4962197;28;19927;-67
2022/12/23 12:01:08;;;;;;;;;;;9.90;99.90;;;;;;4959623;28;19941;-66
2022/12/23 12:03:42;;;;;;;;;;;10.00;99.90;;;;;;4958733;28;19926;-68
2022/12/23 12:06:13;;;;;;;;;;;9.90;99.90;;;;;;4960507;28;19927;-65
2022/12/23 12:08:42;;;;;;;;;;;9.90;99.90;;;;;;4942690;29;19926;-66
2022/12/23 12:11:13;;;;;;;;;;;9.90;99.90;;;;;;4954238;28;19933;-66
2022/12/23 12:13:41;;;;;;;;;;;9.90;99.90;;;;;;4945206;29;19931;-67
2022/12/23 12:16:16;;;;;;;;;;;9.90;99.90;;;;;;4938535;29;19938;-66
2022/12/23 12:18:44;;;;;;;;;;;9.90;99.90;;;;;;4949038;29;19926;-67
2022/12/23 12:21:14;;;;;;;;;;;9.80;99.90;;;;;;4946303;29;19934;-67
2022/12/23 12:23:44;;;;;;;;;;;9.80;99.90;;;;;;4961109;28;20025;-66
2022/12/23 12:26:14;;;;;;;;;;;9.80;99.90;;;;;;4964292;28;20390;-67
2022/12/23 12:28:42;;;;;;;;;;;9.80;99.90;;;;;;4959976;28;19926;-67
2022/12/23 12:31:14;;;;;;;;;;;9.80;99.90;;;;;;4961266;28;19927;-67
2022/12/23 12:33:43;;;;;;;;;;;9.80;99.90;;;;;;4957219;28;19926;-66
2022/12/23 12:36:14;;;;;;;;;;;9.80;99.90;;;;;;4960842;28;19933;-67
2022/12/23 12:38:40;;;;;;;;;;;9.80;99.90;;;;;;4959822;28;19937;-68
2022/12/23 12:41:15;;;;;;;;;;;9.80;99.90;;;;;;4946589;29;19927;-67
2022/12/23 12:43:45;;;;;;;;;;;9.80;99.90;;;;;;4958660;28;19934;-67
2022/12/23 12:46:15;;;;;;;;;;;9.80;99.90;;;;;;4957456;28;19953;-68
2022/12/23 12:48:46;;;;;;;;;;;9.70;99.90;;;;;;4945194;29;19933;-66
2022/12/23 12:51:17;;;;;;;;;;;9.60;99.90;;;;;;4944452;28;19938;-66
2022/12/23 12:53:51;;;;;;;;;;;9.60;99.90;;;;;;4947611;29;19927;-64
2022/12/23 12:56:22;;;;;;;;;;;9.50;99.90;;;;;;4963843;28;19934;-67
2022/12/23 12:58:49;;;;;;;;;;;9.50;99.90;;;;;;4939727;29;19954;-66
2022/12/23 13:01:23;;;;;;;;;;;9.50;99.90;;;;;;4948417;28;19934;-66
2022/12/23 13:04:01;;;;;;;;;;;9.50;99.90;;;;;;4952436;28;20354;-65
2022/12/23 13:06:31;;;;;;;;;;;9.50;99.90;;;;;;4951550;28;19964;-65
2022/12/23 13:09:02;;;;;;;;;;;9.50;99.90;;;;;;4946452;28;19930;-65
2022/12/23 13:11:39;;;;;;;;;;;9.50;99.90;;;;;;4935226;29;19927;-67
2022/12/23 13:14:12;;;;;;;;;;;9.50;99.90;;;;;;4952486;28;19974;-66
2022/12/23 13:16:45;;;;;;;;;;;9.50;99.90;;;;;;4935802;29;19927;-64
2022/12/23 13:19:18;;;;;;;;;;;9.50;99.90;;;;;;4944440;28;19934;-65
2022/12/23 13:21:50;;;;;;;;;;;9.60;99.90;;;;;;4944632;28;19937;-64
2022/12/23 13:24:19;;;;;;;;;;;9.60;99.90;;;;;;4943284;28;19933;-65
2022/12/23 13:26:55;;;;;;;;;;;9.60;99.90;;;;;;4960201;28;19930;-65
2022/12/23 13:29:34;;;;;;;;;;;9.60;99.90;;;;;;4943934;29;19934;-64
2022/12/23 13:32:04;;;;;;;;;;;9.60;99.90;;;;;;4954966;28;19927;-65
2022/12/23 13:34:36;;;;;;;;;;;9.70;99.90;;;;;;4941615;29;19927;-64
2022/12/23 13:37:08;;;;;;;;;;;9.70;99.90;;;;;;4933373;29;19958;-64
2022/12/23 13:39:42;;;;;;;;;;;9.70;99.90;;;;;;4939060;29;19934;-65
2022/12/23 13:42:15;;;;;;;;;;;9.70;99.90;;;;;;4927906;29;19927;-65
2022/12/23 13:44:42;;;;;;;;;;;9.70;99.90;;;;;;4949512;28;19926;-65
2022/12/23 13:47:14;;;;;;;;;;;9.70;99.90;;;;;;4954688;28;19934;-64
2022/12/23 13:49:50;;;;;;;;;;;9.70;99.90;;;;;;4931353;29;19927;-65
2022/12/23 13:52:20;;;;;;;;;;;9.60;99.90;;;;;;4951392;28;19926;-65
2022/12/23 13:54:52;;;;;;;;;;;9.70;99.90;;;;;;4944157;29;19934;-64
2022/12/23 13:57:25;;;;;;;;;;;9.70;99.90;;;;;;4939174;29;19934;-65
2022/12/23 14:00:00;;;;;;;;;;;9.70;99.90;;;;;;4941602;29;19926;-63
2022/12/23 14:02:48;;;;;;;;;;;9.80;99.90;;;;;;4947133;28;19927;-64
2022/12/23 14:05:29;;;;;;;;;;;9.80;99.90;;;;;;4939159;29;19946;-65
2022/12/23 14:07:56;;;;;;;;;;;9.90;99.90;;;;;;4960985;28;19933;-64
2022/12/23 14:10:24;;;;;;;;;;;10.00;99.90;;;;;;4956295;28;19933;-66
2022/12/23 14:12:57;;;;;;;;;;;10.10;99.90;;;;;;4942363;29;20394;-65
2022/12/23 14:15:27;;;;;;;;;;;10.20;99.90;;;;;;4944135;29;19926;-65
2022/12/23 14:18:02;;;;;;;;;;;10.30;99.90;;;;;;4958321;28;19926;-66
2022/12/23 14:20:35;;;;;;;;;;;10.30;99.90;;;;;;4940505;29;19931;-66
2022/12/23 14:23:08;;;;;;;;;;;10.40;99.90;;;;;;4953914;28;20361;-66
2022/12/23 14:25:57;;;;;;;;;;;10.50;99.90;;;;;;4942968;29;19934;-65
2022/12/23 14:28:34;;;;;;;;;;;10.60;99.90;;;;;;4959585;28;19956;-67
2022/12/23 14:31:03;;;;;;;;;;;10.70;99.90;;;;;;4938554;29;19926;-65
2022/12/23 14:33:32;;;;;;;;;;;10.80;99.90;;;;;;4935306;29;19927;-65
2022/12/23 14:36:13;;;;;;;;;;;11.00;99.90;;;;;;4940676;29;19938;-65
2022/12/23 14:38:40;;;;;;;;;;;11.20;99.90;;;;;;4938256;29;19927;-65
2022/12/23 14:41:37;;;;;;;;;;;11.40;99.90;;;;;;4938639;29;19931;-65
2022/12/23 14:44:18;;;;;;;;;;;11.70;99.90;;;;;;4937215;29;19927;-65
2022/12/23 14:46:57;;;;;;;;;;;12.10;99.90;;;;;;4959024;28;19934;-65
2022/12/23 14:49:45;;;;;;;;;;;12.20;99.90;;;;;;4942099;29;19927;-65
2022/12/23 14:52:31;;;;;;;;;;;12.30;99.90;;;;;;4945323;29;19930;-64
2022/12/23 14:55:17;;;;;;;;;;;12.40;99.90;;;;;;4946796;29;19926;-66
2022/12/23 14:57:44;;;;;;;;;;;12.60;99.90;;;;;;4944411;29;19931;-72
2022/12/23 15:00:13;;;;;;;;;;;12.70;99.90;;;;;;4962698;28;19954;-65
2022/12/23 15:02:40;;;;;;;;;;;12.80;99.90;;;;;;4961234;28;19931;-66
2022/12/23 15:05:07;;;;;;;;;;;12.90;99.90;;;;;;4960339;28;19927;-64
2022/12/23 15:07:36;;;;;;;;;;;12.90;99.90;;;;;;4960512;28;19934;-65
2022/12/23 15:10:04;;;;;;;;;;;12.90;99.90;;;;;;4960037;28;19927;-65
2022/12/23 15:12:31;;;;;;;;;;;12.80;99.90;;;;;;4961734;28;19926;-65
2022/12/23 15:14:59;;;;;;;;;;;13.00;99.90;;;;;;4963423;28;19926;-65
2022/12/23 15:17:29;;;;;;;;;;;13.00;99.90;;;;;;4941240;29;19926;-66
2022/12/23 15:20:03;;;;;;;;;;;13.10;99.90;;;;;;4963534;28;19934;-65
2022/12/23 15:22:30;;;;;;;;;;;13.20;99.90;;;;;;4943761;29;20457;-66
2022/12/23 15:24:57;;;;;;;;;;;13.30;99.90;;;;;;4949056;29;19941;-66
2022/12/23 15:27:24;;;;;;;;;;;13.30;99.90;;;;;;4960331;28;20283;-66
2022/12/23 15:29:53;;;;;;;;;;;13.30;99.90;;;;;;4959868;28;19927;-65
2022/12/23 15:32:20;;;;;;;;;;;13.30;99.90;;;;;;4940387;29;19931;-66
2022/12/23 15:34:49;;;;;;;;;;;13.40;99.90;;;;;;4944497;29;19943;-66
2022/12/23 15:37:17;;;;;;;;;;;13.40;99.90;;;;;;4935975;29;19930;-66
2022/12/23 15:39:45;;;;;;;;;;;13.40;99.90;;;;;;4949082;29;19972;-65
2022/12/23 15:42:20;;;;;;;;;;;13.40;99.90;;;;;;4944789;29;20394;-65
2022/12/23 15:44:47;;;;;;;;;;;13.40;99.90;;;;;;4961628;28;19941;-68
2022/12/23 15:47:24;;;;;;;;;;;13.40;99.90;;;;;;4944883;29;19933;-66
2022/12/23 15:49:52;;;;;;;;;;;13.40;99.90;;;;;;4939376;29;19934;-70
2022/12/23 15:52:19;;;;;;;;;;;13.40;99.90;;;;;;4962931;28;19934;-65
2022/12/23 15:54:52;;;;;;;;;;;13.30;99.90;;;;;;4952790;28;19958;-66
2022/12/23 15:57:20;;;;;;;;;;;13.30;99.90;;;;;;4950587;29;19937;-66
2022/12/23 15:59:47;;;;;;;;;;;13.40;99.90;;;;;;4959210;28;19934;-65
2022/12/23 16:02:17;;;;;;;;;;;13.40;99.90;;;;;;4941560;28;19927;-65
2022/12/23 16:04:51;;;;;;;;;;;13.40;99.90;;;;;;4964783;28;19926;-66
2022/12/23 16:07:25;;;;;;;;;;;13.40;99.90;;;;;;4941180;29;19927;-66
2022/12/23 16:09:53;;;;;;;;;;;13.40;99.90;;;;;;4961848;28;19927;-66
2022/12/23 16:12:22;;;;;;;;;;;13.40;99.90;;;;;;4938569;29;19997;-66
2022/12/23 16:14:52;;;;;;;;;;;13.30;99.90;;;;;;4947647;29;19927;-65
2022/12/23 16:17:22;;;;;;;;;;;12.90;99.90;;;;;;4962560;28;20346;-65
2022/12/23 16:19:50;;;;;;;;;;;12.70;99.90;;;;;;4938325;29;19991;-67
2022/12/23 16:22:24;;;;;;;;;;;12.60;99.90;;;;;;4955147;28;19931;-65
2022/12/23 16:24:54;;;;;;;;;;;12.50;99.90;;;;;;4935356;29;20328;-66
2022/12/23 16:27:36;;;;;;;;;;;12.40;99.90;;;;;;4950167;28;19931;-66
2022/12/23 16:30:08;;;;;;;;;;;12.30;99.90;;;;;;4932959;29;19927;-65
2022/12/23 16:32:41;;;;;;;;;;;12.30;99.90;;;;;;4952838;28;19934;-65
2022/12/23 16:35:12;;;;;;;;;;;12.20;99.90;;;;;;4952703;28;19927;-65
2022/12/23 16:37:39;;;;;;;;;;;12.20;99.90;;;;;;4945486;29;19926;-65
2022/12/23 16:40:13;;;;;;;;;;;12.30;99.90;;;;;;4937413;29;20407;-65
2022/12/23 16:42:40;;;;;;;;;;;12.30;99.90;;;;;;4943547;29;19938;-65
2022/12/23 16:45:07;;;;;;;;;;;12.40;99.90;;;;;;4936971;29;19927;-65
2022/12/23 16:47:34;;;;;;;;;;;12.40;99.90;;;;;;4935283;29;19934;-65
2022/12/23 16:50:00;;;;;;;;;;;12.40;99.90;;;;;;4950648;29;20448;-66
2022/12/23 16:52:27;;;;;;;;;;;12.40;99.90;;;;;;4935055;29;19926;-65
2022/12/23 16:54:54;;;;;;;;;;;12.40;99.90;;;;;;4953789;28;19927;-66
2022/12/23 16:57:22;;;;;;;;;;;12.40;99.90;;;;;;4935201;29;19933;-65
2022/12/23 16:59:49;;;;;;;;;;;12.40;99.90;;;;;;4935248;29;19926;-65
2022/12/23 17:02:18;;;;;;;;;;;12.50;99.90;;;;;;4937701;29;19934;-65
2022/12/23 17:04:45;;;;;;;;;;;12.50;99.90;;;;;;4950745;28;19934;-65
2022/12/23 17:07:12;;;;;;;;;;;12.60;99.90;;;;;;4950888;28;19927;-65
2022/12/23 17:09:39;;;;;;;;;;;12.60;99.90;;;;;;4950907;28;20329;-65
2022/12/23 17:12:06;;;;;;;;;;;12.50;99.90;;;;;;4953083;28;19936;-69
2022/12/23 17:14:34;;;;;;;;;;;12.50;99.90;;;;;;4935077;29;19926;-70
2022/12/23 17:17:01;;;;;;;;;;;12.50;99.90;;;;;;4956284;28;19934;-70
2022/12/23 17:19:28;;;;;;;;;;;12.50;99.90;;;;;;4957412;28;19926;-70
2022/12/23 17:21:58;;;;;;;;;;;12.50;99.90;;;;;;4949425;29;19958;-71
2022/12/23 17:24:25;;;;;;;;;;;12.50;99.90;;;;;;4942720;29;20282;-69
2022/12/23 17:26:52;;;;;;;;;;;12.60;99.90;;;;;;4936442;29;20461;-69
2022/12/23 17:29:19;;;;;;;;;;;12.60;99.90;;;;;;4937909;29;19927;-69
2022/12/23 17:31:48;;;;;;;;;;;12.60;99.90;;;;;;4950622;29;19934;-72
2022/12/23 17:34:16;;;;;;;;;;;12.50;99.90;;;;;;4951396;29;19935;-67
2022/12/23 17:36:43;;;;;;;;;;;12.50;99.90;;;;;;4946217;29;19930;-70
2022/12/23 17:39:10;;;;;;;;;;;12.40;99.90;;;;;;4957246;28;19931;-65
2022/12/23 17:41:38;;;;;;;;;;;12.40;99.90;;;;;;4960408;28;19926;-65
2022/12/23 17:44:05;;;;;;;;;;;12.30;99.90;;;;;;4945190;29;19933;-65
2022/12/23 17:46:32;;;;;;;;;;;12.30;99.90;;;;;;4960785;28;19926;-65
2022/12/23 17:49:00;;;;;;;;;;;12.30;99.90;;;;;;4960453;28;19970;-66
2022/12/23 17:51:27;;;;;;;;;;;12.30;99.90;;;;;;4943423;29;19926;-65
2022/12/23 17:53:56;;;;;;;;;;;12.20;99.90;;;;;;4961419;28;19933;-66
2022/12/23 17:56:23;;;;;;;;;;;12.20;99.90;;;;;;4939212;29;19934;-64
2022/12/23 17:58:51;;;;;;;;;;;12.30;99.90;;;;;;4945747;29;19993;-65
2022/12/23 18:01:20;;;;;;;;;;;12.30;99.90;;;;;;4958103;28;20288;-66
2022/12/23 18:03:47;;;;;;;;;;;12.30;99.90;;;;;;4962140;28;19927;-72
2022/12/23 18:06:17;;;;;;;;;;;12.30;99.90;;;;;;4956529;28;19927;-66
2022/12/23 18:08:44;;;;;;;;;;;12.30;99.90;;;;;;4938076;29;19927;-65
2022/12/23 18:11:17;;;;;;;;;;;12.20;99.90;;;;;;4946094;29;19978;-65
2022/12/23 18:13:44;;;;;;;;;;;12.20;99.90;;;;;;4936853;29;20378;-66
2022/12/23 18:16:12;;;;;;;;;;;12.30;99.90;;;;;;4940172;29;19931;-66
2022/12/23 18:18:38;;;;;;;;;;;12.30;99.90;;;;;;4959043;28;19934;-65
2022/12/23 18:21:05;;;;;;;;;;;12.30;99.90;;;;;;4942345;29;19927;-66
2022/12/23 18:23:35;;;;;;;;;;;12.20;99.90;;;;;;4964897;28;20355;-66
2022/12/23 18:26:02;;;;;;;;;;;12.10;99.90;;;;;;4935757;29;19935;-66
2022/12/23 18:28:29;;;;;;;;;;;12.10;99.90;;;;;;4961254;28;19926;-65
2022/12/23 18:30:56;;;;;;;;;;;12.00;99.90;;;;;;4941414;29;19927;-65
2022/12/23 18:33:27;;;;;;;;;;;12.10;99.90;;;;;;4960677;28;19926;-66
2022/12/23 18:35:54;;;;;;;;;;;12.10;99.90;;;;;;4954690;28;19927;-65